createdAt,value
2019-06-01T00:01:49.599Z,99.90
2019-06-01T00:04:19.017Z,99.90
2019-06-01T00:06:49.392Z,99.90
2019-06-01T00:09:20.242Z,99.90
2019-06-01T00:11:50.026Z,99.90
2019-06-01T00:14:20.103Z,99.90
2019-06-01T00:16:50.390Z,99.90
2019-06-01T00:19:20.294Z,99.90
2019-06-01T00:21:52.308Z,99.90
2019-06-01T00:24:22.866Z,99.90
2019-06-01T00:26:52.271Z,99.90
2019-06-01T00:29:23.439Z,99.90
2019-06-01T00:31:53.544Z,99.90
2019-06-01T00:34:24.663Z,99.90
2019-06-01T00:36:55.064Z,99.90
2019-06-01T00:39:24.559Z,99.90
2019-06-01T00:41:54.030Z,99.90
2019-06-01T00:44:23.650Z,99.90
2019-06-01T00:46:54.353Z,99.90
2019-06-01T00:49:23.784Z,99.90
2019-06-01T00:51:53.795Z,99.90
2019-06-01T00:54:23.295Z,99.90
2019-06-01T00:56:53.888Z,99.90
2019-06-01T00:59:24.097Z,99.90
2019-06-01T01:01:54.235Z,99.90
2019-06-01T01:04:24.145Z,99.90
2019-06-01T01:06:54.686Z,99.90
2019-06-01T01:09:25.027Z,99.90
2019-06-01T01:11:55.314Z,99.90
2019-06-01T01:14:25.209Z,99.90
2019-06-01T01:16:55.676Z,99.90
2019-06-01T01:19:25.163Z,99.90
2019-06-01T01:21:56.405Z,99.90
2019-06-01T01:24:27.956Z,99.90
2019-06-01T01:26:57.292Z,99.90
2019-06-01T01:29:26.702Z,99.90
2019-06-01T01:31:57.316Z,99.90
2019-06-01T01:34:32.047Z,99.90
2019-06-01T01:37:02.006Z,99.90
2019-06-01T01:39:31.780Z,99.90
2019-06-01T01:42:01.188Z,99.90
2019-06-01T01:44:30.966Z,99.90
2019-06-01T01:47:02.498Z,99.90
2019-06-01T01:49:31.968Z,99.90
2019-06-01T01:52:05.373Z,99.90
2019-06-01T01:54:35.555Z,99.90
2019-06-01T01:57:07.194Z,99.90
2019-06-01T01:59:36.047Z,99.90
2019-06-01T02:02:05.482Z,99.90
2019-06-01T02:04:35.369Z,99.90
2019-06-01T02:07:06.455Z,99.90
2019-06-01T02:09:39.145Z,99.90
2019-06-01T02:12:09.324Z,99.90
2019-06-01T02:14:39.889Z,99.90
2019-06-01T02:17:09.316Z,99.90
2019-06-01T02:19:39.117Z,99.90
2019-06-01T02:22:08.504Z,99.90
2019-06-01T02:24:37.940Z,99.90
2019-06-01T02:27:07.350Z,99.90
2019-06-01T02:29:37.344Z,99.90
2019-06-01T02:32:07.547Z,99.90
2019-06-01T02:34:38.309Z,99.90
2019-06-01T02:37:08.798Z,99.90
2019-06-01T02:39:40.300Z,99.90
2019-06-01T02:42:11.277Z,99.90
2019-06-01T02:44:41.531Z,99.90
2019-06-01T02:47:11.634Z,99.90
2019-06-01T02:49:41.025Z,99.90
2019-06-01T02:52:10.418Z,99.90
2019-06-01T02:54:40.235Z,99.90
2019-06-01T02:57:10.505Z,99.90
2019-06-01T02:59:39.952Z,99.90
2019-06-01T03:02:14.294Z,99.90
2019-06-01T03:04:42.234Z,99.90
2019-06-01T03:07:13.446Z,99.90
2019-06-01T03:09:45.360Z,99.90
2019-06-01T03:12:18.358Z,99.90
2019-06-01T03:14:49.850Z,99.90
2019-06-01T03:17:22.188Z,99.90
2019-06-01T03:19:57.826Z,99.90
2019-06-01T03:22:28.280Z,99.90
2019-06-01T03:25:01.909Z,99.90
2019-06-01T03:27:35.060Z,99.90
2019-06-01T03:30:09.834Z,99.90
2019-06-01T03:32:39.306Z,99.90
2019-06-01T03:35:08.948Z,99.90
2019-06-01T03:37:39.057Z,99.90
2019-06-01T03:40:21.721Z,99.90
2019-06-01T03:42:41.734Z,99.90
2019-06-01T03:45:12.853Z,99.90
2019-06-01T03:47:43.168Z,99.90
2019-06-01T03:50:13.361Z,99.90
2019-06-01T03:52:43.386Z,99.90
2019-06-01T03:55:13.658Z,99.90
2019-06-01T03:57:43.056Z,99.90
2019-06-01T04:00:13.330Z,99.90
2019-06-01T04:02:43.539Z,99.90
2019-06-01T04:05:13.937Z,99.90
2019-06-01T04:07:45.169Z,99.90
2019-06-01T04:10:15.948Z,99.90
2019-06-01T04:12:45.360Z,99.90
2019-06-01T04:15:16.884Z,99.90
2019-06-01T04:17:46.773Z,99.90
2019-06-01T04:20:18.153Z,99.90
2019-06-01T04:22:48.041Z,99.90
2019-06-01T04:25:19.359Z,99.90
2019-06-01T04:27:48.689Z,99.90
2019-06-01T04:30:19.923Z,99.90
2019-06-01T04:32:50.642Z,99.90
2019-06-01T04:35:20.098Z,99.90
2019-06-01T04:37:49.879Z,99.90
2019-06-01T04:40:19.281Z,99.90
2019-06-01T04:42:49.557Z,99.90
2019-06-01T04:45:22.945Z,99.90
2019-06-01T04:47:52.964Z,99.90
2019-06-01T04:50:22.344Z,99.90
2019-06-01T04:52:52.297Z,99.90
2019-06-01T04:55:22.380Z,99.90
2019-06-01T04:57:54.184Z,99.90
2019-06-01T05:00:27.701Z,99.90
2019-06-01T05:03:04.874Z,99.90
2019-06-01T05:05:26.489Z,99.90
2019-06-01T05:07:57.276Z,99.90
2019-06-01T05:10:27.603Z,99.90
2019-06-01T05:12:56.994Z,99.90
2019-06-01T05:15:26.399Z,99.90
2019-06-01T05:17:59.139Z,99.90
2019-06-01T05:20:32.365Z,99.90
2019-06-01T05:23:01.809Z,99.90
2019-06-01T05:25:31.775Z,99.90
2019-06-01T05:28:01.229Z,99.90
2019-06-01T05:30:31.320Z,99.90
2019-06-01T05:33:01.154Z,99.90
2019-06-01T05:35:31.534Z,99.90
2019-06-01T05:38:01.484Z,99.90
2019-06-01T05:40:32.018Z,99.90
2019-06-01T05:43:02.433Z,99.90
2019-06-01T05:45:31.804Z,99.90
2019-06-01T05:48:01.369Z,99.90
2019-06-01T05:50:31.817Z,99.90
2019-06-01T05:53:01.962Z,99.90
2019-06-01T05:55:32.188Z,99.90
2019-06-01T05:58:02.190Z,99.40
2019-06-01T06:00:42.921Z,99.90
2019-06-01T06:03:16.175Z,96.60
2019-06-01T06:05:45.641Z,92.90
2019-06-01T06:08:17.972Z,91.40
2019-06-01T06:10:47.784Z,88.20
2019-06-01T06:13:19.307Z,84.10
2019-06-01T06:15:49.382Z,79.60
2019-06-01T06:18:19.811Z,74.90
2019-06-01T06:20:49.396Z,72.40
2019-06-01T06:23:18.928Z,68.80
2019-06-01T06:25:48.893Z,63.70
2019-06-01T06:28:18.799Z,60.20
2019-06-01T06:30:49.068Z,58.50
2019-06-01T06:33:19.449Z,55.00
2019-06-01T06:35:48.856Z,55.80
2019-06-01T06:38:18.245Z,55.60
2019-06-01T06:40:47.960Z,55.00
2019-06-01T06:43:23.646Z,54.20
2019-06-01T06:45:50.832Z,53.30
2019-06-01T06:48:21.264Z,52.70
2019-06-01T06:50:50.790Z,51.40
2019-06-01T06:53:28.468Z,49.40
2019-06-01T06:55:51.718Z,48.70
2019-06-01T06:58:22.439Z,47.10
2019-06-01T07:00:53.490Z,47.20
2019-06-01T07:03:23.548Z,46.30
2019-06-01T07:05:53.515Z,44.80
2019-06-01T07:08:23.885Z,44.00
2019-06-01T07:10:54.310Z,42.90
2019-06-01T07:13:23.985Z,42.60
2019-06-01T07:15:53.385Z,42.00
2019-06-01T07:18:25.652Z,41.10
2019-06-01T07:20:55.123Z,40.20
2019-06-01T07:23:25.808Z,39.40
2019-06-01T07:25:55.859Z,39.90
2019-06-01T07:28:26.203Z,39.80
2019-06-01T07:30:55.731Z,40.50
2019-06-01T07:33:26.364Z,39.70
2019-06-01T07:35:56.458Z,38.40
2019-06-01T07:38:26.788Z,38.00
2019-06-01T07:40:57.718Z,38.10
2019-06-01T07:43:27.428Z,38.00
2019-06-01T07:45:57.649Z,38.30
2019-06-01T07:48:27.182Z,38.50
2019-06-01T07:50:57.264Z,38.10
2019-06-01T07:53:27.412Z,37.20
2019-06-01T07:55:56.985Z,36.30
2019-06-01T07:58:26.761Z,36.20
2019-06-01T08:00:56.395Z,36.10
2019-06-01T08:03:28.904Z,35.60
2019-06-01T08:05:57.292Z,35.80
2019-06-01T08:08:27.349Z,35.00
2019-06-01T08:10:57.193Z,35.60
2019-06-01T08:13:31.527Z,35.00
2019-06-01T08:16:00.650Z,33.80
2019-06-01T08:18:32.344Z,33.40
2019-06-01T08:21:02.666Z,32.20
2019-06-01T08:23:32.597Z,32.60
2019-06-01T08:26:02.640Z,32.60
2019-06-01T08:28:36.592Z,32.00
2019-06-01T08:31:06.333Z,31.00
2019-06-01T08:33:41.564Z,30.90
2019-06-01T08:36:15.384Z,30.40
2019-06-01T08:38:47.645Z,29.30
2019-06-01T08:41:18.349Z,29.80
2019-06-01T08:43:47.746Z,30.10
2019-06-01T08:46:19.361Z,30.20
2019-06-01T08:48:49.022Z,29.20
2019-06-01T08:51:18.996Z,28.50
2019-06-01T08:53:49.133Z,27.60
2019-06-01T08:56:21.808Z,28.60
2019-06-01T08:58:49.619Z,29.20
2019-06-01T09:01:19.022Z,29.60
2019-06-01T09:03:48.949Z,28.60
2019-06-01T09:06:18.352Z,28.20
2019-06-01T09:08:48.070Z,28.40
2019-06-01T09:11:18.857Z,29.10
2019-06-01T09:13:52.613Z,27.60
2019-06-01T09:16:22.304Z,27.80
2019-06-01T09:18:53.226Z,27.90
2019-06-01T09:21:22.777Z,28.20
2019-06-01T09:23:52.393Z,29.20
2019-06-01T09:26:22.425Z,29.80
2019-06-01T09:28:51.823Z,28.80
2019-06-01T09:31:22.083Z,29.40
2019-06-01T09:33:52.427Z,28.70
2019-06-01T09:36:22.498Z,28.50
2019-06-01T09:38:55.416Z,28.30
2019-06-01T09:41:26.525Z,28.30
2019-06-01T09:43:55.867Z,28.00
2019-06-01T09:46:26.900Z,28.50
2019-06-01T09:48:56.478Z,28.20
2019-06-01T09:51:27.352Z,29.00
2019-06-01T09:53:58.637Z,28.30
2019-06-01T09:56:30.874Z,29.00
2019-06-01T09:59:02.456Z,29.50
2019-06-01T10:01:34.470Z,29.60
2019-06-01T10:04:03.924Z,30.00
2019-06-01T10:06:34.677Z,30.90
2019-06-01T10:09:06.322Z,31.40
2019-06-01T10:11:36.556Z,34.10
2019-06-01T10:14:06.181Z,36.00
2019-06-01T10:16:39.819Z,36.30
2019-06-01T10:19:09.593Z,39.90
2019-06-01T10:21:39.611Z,41.40
2019-06-01T10:24:12.457Z,42.90
2019-06-01T10:26:43.079Z,44.10
2019-06-01T10:29:12.566Z,45.60
2019-06-01T10:31:43.989Z,45.60
2019-06-01T10:34:13.809Z,46.00
2019-06-01T10:36:44.498Z,47.60
2019-06-01T10:39:14.551Z,47.90
2019-06-01T10:41:44.493Z,47.80
2019-06-01T10:44:14.714Z,49.10
2019-06-01T10:46:44.762Z,49.00
2019-06-01T10:49:14.214Z,48.30
2019-06-01T10:51:43.711Z,48.70
2019-06-01T10:54:13.891Z,48.30
2019-06-01T10:56:44.659Z,48.30
2019-06-01T10:59:15.535Z,47.60
2019-06-01T11:01:51.558Z,48.40
2019-06-01T11:04:22.233Z,47.10
2019-06-01T11:06:53.154Z,46.90
2019-06-01T11:09:25.651Z,48.80
2019-06-01T11:11:55.794Z,48.10
2019-06-01T11:14:25.157Z,47.00
2019-06-01T11:16:56.420Z,47.80
2019-06-01T11:19:26.269Z,49.00
2019-06-01T11:21:55.778Z,47.10
2019-06-01T11:24:25.614Z,45.60
2019-06-01T11:26:55.064Z,48.50
2019-06-01T11:29:24.859Z,49.20
2019-06-01T11:31:54.293Z,50.70
2019-06-01T11:34:24.727Z,48.60
2019-06-01T11:37:04.914Z,49.00
2019-06-01T11:39:25.213Z,49.10
2019-06-01T11:41:55.653Z,50.20
2019-06-01T11:44:25.533Z,50.20
2019-06-01T11:46:55.904Z,50.40
2019-06-01T11:49:26.133Z,50.90
2019-06-01T11:51:55.512Z,51.60
2019-06-01T11:54:24.905Z,52.20
2019-06-01T11:56:54.541Z,48.90
2019-06-01T11:59:26.759Z,52.30
2019-06-01T12:01:58.426Z,53.30
2019-06-01T12:04:28.203Z,52.70
2019-06-01T12:07:13.695Z,50.70
2019-06-01T12:09:35.711Z,53.30
2019-06-01T12:12:05.844Z,53.40
2019-06-01T12:14:36.297Z,52.20
2019-06-01T12:17:06.136Z,53.00
2019-06-01T12:19:36.513Z,53.50
2019-06-01T12:22:06.348Z,54.80
2019-06-01T12:24:38.824Z,55.10
2019-06-01T12:27:08.359Z,55.10
2019-06-01T12:29:37.792Z,55.10
2019-06-01T12:32:07.966Z,55.10
2019-06-01T12:34:39.961Z,55.00
2019-06-01T12:37:12.079Z,54.70
2019-06-01T12:39:42.336Z,54.30
2019-06-01T12:42:11.751Z,54.10
2019-06-01T12:44:45.861Z,54.30
2019-06-01T12:47:17.112Z,53.50
2019-06-01T12:49:48.291Z,52.00
2019-06-01T12:52:19.029Z,52.30
2019-06-01T12:54:49.844Z,51.50
2019-06-01T12:57:25.178Z,52.20
2019-06-01T12:59:54.696Z,51.80
2019-06-01T13:02:24.098Z,52.20
2019-06-01T13:04:53.952Z,53.00
2019-06-01T13:07:23.284Z,52.80
2019-06-01T13:09:52.921Z,53.00
2019-06-01T13:12:22.576Z,52.00
2019-06-01T13:14:52.480Z,52.40
2019-06-01T13:17:21.893Z,51.60
2019-06-01T13:19:51.633Z,51.70
2019-06-01T13:22:21.066Z,51.80
2019-06-01T13:24:51.918Z,51.50
2019-06-01T13:27:21.528Z,50.80
2019-06-01T13:29:52.134Z,52.00
2019-06-01T13:32:22.221Z,52.60
2019-06-01T13:34:51.825Z,53.40
2019-06-01T13:37:21.204Z,52.40
2019-06-01T13:39:55.994Z,53.30
2019-06-01T13:42:21.657Z,55.30
2019-06-01T13:44:51.633Z,53.90
2019-06-01T13:47:21.045Z,54.20
2019-06-01T13:49:51.890Z,53.40
2019-06-01T13:52:23.124Z,54.00
2019-06-01T13:54:52.910Z,53.60
2019-06-01T13:57:22.553Z,53.10
2019-06-01T13:59:53.018Z,53.70
2019-06-01T14:02:22.402Z,53.30
2019-06-01T14:04:52.271Z,53.20
2019-06-01T14:07:21.658Z,53.30
2019-06-01T14:09:52.209Z,54.00
2019-06-01T14:12:22.254Z,54.30
2019-06-01T14:14:53.440Z,54.00
2019-06-01T14:17:23.060Z,53.40
2019-06-01T14:19:53.796Z,54.90
2019-06-01T14:22:23.229Z,53.50
2019-06-01T14:25:08.371Z,53.00
2019-06-01T14:27:24.125Z,51.50
2019-06-01T14:29:54.431Z,52.30
2019-06-01T14:32:23.813Z,52.20
2019-06-01T14:34:53.351Z,51.50
2019-06-01T14:37:25.649Z,51.50
2019-06-01T14:39:55.283Z,51.60
2019-06-01T14:42:24.989Z,51.00
2019-06-01T14:44:58.151Z,51.30
2019-06-01T14:47:32.817Z,51.30
2019-06-01T14:50:08.852Z,50.80
2019-06-01T14:52:43.950Z,52.20
2019-06-01T14:55:19.160Z,51.60
2019-06-01T14:57:55.989Z,51.60
2019-06-01T15:00:25.413Z,50.30
2019-06-01T15:02:54.808Z,50.50
2019-06-01T15:05:27.728Z,50.20
2019-06-01T15:07:57.552Z,50.50
2019-06-01T15:10:28.548Z,49.40
2019-06-01T15:13:02.662Z,49.30
2019-06-01T15:15:29.289Z,49.30
2019-06-01T15:17:58.708Z,48.30
2019-06-01T15:20:28.416Z,48.90
2019-06-01T15:22:59.143Z,48.60
2019-06-01T15:25:34.845Z,48.70
2019-06-01T15:28:11.990Z,48.40
2019-06-01T15:30:41.338Z,48.40
2019-06-01T15:33:10.709Z,49.40
2019-06-01T15:35:40.368Z,49.40
2019-06-01T15:38:09.860Z,48.70
2019-06-01T15:40:39.221Z,48.10
2019-06-01T15:43:08.983Z,49.40
2019-06-01T15:45:41.225Z,50.00
2019-06-01T15:48:09.854Z,49.30
2019-06-01T15:50:45.776Z,50.70
2019-06-01T15:53:16.176Z,50.70
2019-06-01T15:55:45.577Z,50.50
2019-06-01T15:58:16.283Z,50.70
2019-06-01T16:00:46.208Z,49.50
2019-06-01T16:03:17.170Z,50.10
2019-06-01T16:05:47.250Z,49.70
2019-06-01T16:08:18.097Z,48.80
2019-06-01T16:10:47.512Z,47.90
2019-06-01T16:13:18.101Z,48.70
2019-06-01T16:15:47.497Z,48.50
2019-06-01T16:18:18.555Z,47.60
2019-06-01T16:20:48.924Z,49.30
2019-06-01T16:23:18.476Z,49.80
2019-06-01T16:25:59.687Z,50.20
2019-06-01T16:28:20.709Z,48.90
2019-06-01T16:30:54.370Z,49.20
2019-06-01T16:33:24.090Z,48.90
2019-06-01T16:35:54.842Z,49.50
2019-06-01T16:38:24.303Z,50.00
2019-06-01T16:40:55.103Z,50.20
2019-06-01T16:43:24.617Z,50.40
2019-06-01T16:45:55.481Z,50.10
2019-06-01T16:48:26.348Z,50.90
2019-06-01T16:50:56.085Z,51.10
2019-06-01T16:53:25.617Z,50.30
2019-06-01T16:55:55.830Z,50.40
2019-06-01T16:58:25.806Z,51.60
2019-06-01T17:00:56.347Z,52.20
2019-06-01T17:03:26.448Z,52.10
2019-06-01T17:05:56.649Z,51.90
2019-06-01T17:08:26.695Z,51.90
2019-06-01T17:10:56.669Z,51.90
2019-06-01T17:13:26.794Z,51.00
2019-06-01T17:15:56.846Z,51.60
2019-06-01T17:18:26.606Z,53.50
2019-06-01T17:20:57.268Z,53.60
2019-06-01T17:23:29.390Z,54.10
2019-06-01T17:25:58.453Z,53.30
2019-06-01T17:28:28.371Z,53.90
2019-06-01T17:30:58.402Z,54.10
2019-06-01T17:33:29.871Z,54.50
2019-06-01T17:36:00.610Z,54.10
2019-06-01T17:38:30.280Z,53.50
2019-06-01T17:41:00.252Z,55.00
2019-06-01T17:43:29.980Z,54.80
2019-06-01T17:46:00.462Z,54.50
2019-06-01T17:48:30.583Z,54.60
2019-06-01T17:51:02.602Z,54.70
2019-06-01T17:53:36.547Z,55.10
2019-06-01T17:56:06.129Z,55.00
2019-06-01T17:58:36.343Z,56.00
2019-06-01T18:01:06.293Z,54.50
2019-06-01T18:03:35.818Z,55.20
2019-06-01T18:06:05.812Z,55.10
2019-06-01T18:08:35.443Z,55.60
2019-06-01T18:11:05.978Z,55.80
2019-06-01T18:13:35.720Z,56.10
2019-06-01T18:16:06.254Z,56.40
2019-06-01T18:18:36.095Z,56.10
2019-06-01T18:21:08.451Z,56.70
2019-06-01T18:23:37.937Z,56.80
2019-06-01T18:26:07.265Z,57.50
2019-06-01T18:28:36.868Z,57.60
2019-06-01T18:31:06.718Z,57.80
2019-06-01T18:33:37.222Z,58.10
2019-06-01T18:36:07.599Z,57.80
2019-06-01T18:38:37.810Z,57.60
2019-06-01T18:41:15.840Z,57.70
2019-06-01T18:43:39.093Z,58.40
2019-06-01T18:46:08.566Z,58.90
2019-06-01T18:48:37.970Z,59.20
2019-06-01T18:51:08.108Z,59.40
2019-06-01T18:53:37.865Z,59.60
2019-06-01T18:56:08.168Z,60.00
2019-06-01T18:58:38.151Z,60.30
2019-06-01T19:01:08.408Z,60.70
2019-06-01T19:03:37.892Z,61.20
2019-06-01T19:06:07.674Z,61.20
2019-06-01T19:08:37.382Z,62.10
2019-06-01T19:11:06.815Z,62.50
2019-06-01T19:13:36.500Z,63.40
2019-06-01T19:16:05.945Z,63.10
2019-06-01T19:18:35.600Z,63.70
2019-06-01T19:21:06.438Z,63.90
2019-06-01T19:23:36.297Z,65.70
2019-06-01T19:26:10.148Z,65.90
2019-06-01T19:28:37.908Z,65.90
2019-06-01T19:31:07.294Z,67.50
2019-06-01T19:33:36.680Z,68.50
2019-06-01T19:36:07.019Z,68.60
2019-06-01T19:38:38.151Z,69.20
2019-06-01T19:41:07.513Z,70.10
2019-06-01T19:43:37.527Z,70.30
2019-06-01T19:46:07.662Z,69.80
2019-06-01T19:48:37.403Z,70.50
2019-06-01T19:51:08.629Z,71.40
2019-06-01T19:53:38.313Z,73.50
2019-06-01T19:56:08.764Z,75.30
2019-06-01T19:58:38.289Z,77.40
2019-06-01T20:01:08.349Z,79.00
2019-06-01T20:03:38.388Z,81.10
2019-06-01T20:06:08.315Z,83.20
2019-06-01T20:08:37.882Z,85.50
2019-06-01T20:11:08.240Z,87.20
2019-06-01T20:13:42.468Z,89.10
2019-06-01T20:16:12.356Z,90.00
2019-06-01T20:18:42.328Z,90.40
2019-06-01T20:21:12.125Z,91.60
2019-06-01T20:23:41.512Z,91.70
2019-06-01T20:26:11.423Z,92.90
2019-06-01T20:28:41.401Z,93.90
2019-06-01T20:31:16.274Z,95.00
2019-06-01T20:33:45.722Z,95.50
2019-06-01T20:36:18.118Z,96.30
2019-06-01T20:38:50.801Z,96.50
2019-06-01T20:41:22.652Z,97.20
2019-06-01T20:43:56.585Z,98.10
2019-06-01T20:46:28.187Z,98.50
2019-06-01T20:48:59.915Z,99.00
2019-06-01T20:51:32.650Z,99.20
2019-06-01T20:54:06.615Z,99.50
2019-06-01T20:56:38.791Z,99.80
2019-06-01T20:59:09.566Z,99.90
2019-06-01T21:01:48.134Z,99.90
2019-06-01T21:04:22.368Z,99.90
2019-06-01T21:06:53.544Z,99.90
2019-06-01T21:09:30.028Z,99.90
2019-06-01T21:12:03.573Z,99.90
2019-06-01T21:14:36.949Z,99.90
2019-06-01T21:17:09.882Z,99.90
2019-06-01T21:19:40.738Z,99.90
2019-06-01T21:22:12.235Z,99.90
2019-06-01T21:24:43.150Z,99.90
2019-06-01T21:27:20.770Z,99.90
2019-06-01T21:30:01.275Z,99.90
2019-06-01T21:32:31.971Z,99.90
2019-06-01T21:35:03.369Z,99.90
2019-06-01T21:40:06.051Z,99.90
2019-06-01T21:42:38.499Z,99.90
2019-06-01T21:45:08.031Z,99.90
2019-06-01T21:47:37.528Z,99.90
2019-06-01T21:50:07.381Z,99.90
2019-06-01T21:52:37.417Z,99.90
2019-06-01T21:55:07.673Z,99.90
2019-06-01T21:57:37.370Z,99.90
2019-06-01T22:00:09.597Z,99.90
2019-06-01T22:02:39.254Z,99.90
2019-06-01T22:05:09.338Z,99.90
2019-06-01T22:07:38.802Z,99.90
2019-06-01T22:10:08.507Z,99.90
2019-06-01T22:12:37.933Z,99.90
2019-06-01T22:15:07.531Z,99.90
2019-06-01T22:17:36.924Z,99.90
2019-06-01T22:20:07.448Z,99.90
2019-06-01T22:22:37.830Z,99.90
2019-06-01T22:25:07.369Z,99.90
2019-06-01T22:27:38.503Z,99.90
2019-06-01T22:30:08.615Z,99.90
2019-06-01T22:32:38.046Z,99.90
2019-06-01T22:35:08.369Z,99.90
2019-06-01T22:37:38.352Z,99.90
2019-06-01T22:40:08.075Z,99.90
2019-06-01T22:42:37.470Z,99.90
2019-06-01T22:45:07.293Z,99.90
2019-06-01T22:47:47.684Z,99.90
2019-06-01T22:50:18.082Z,99.90
2019-06-01T22:52:47.992Z,99.90
2019-06-01T22:55:18.053Z,99.90
2019-06-01T22:57:47.440Z,99.90
2019-06-01T23:00:19.254Z,99.90
2019-06-01T23:02:48.645Z,99.90
2019-06-01T23:05:18.071Z,99.90
2019-06-01T23:07:47.492Z,99.90
2019-06-01T23:10:18.653Z,99.90
2019-06-01T23:12:48.290Z,99.90
2019-06-01T23:15:18.690Z,99.90
2019-06-01T23:17:48.381Z,99.90
2019-06-01T23:20:18.152Z,99.90
2019-06-01T23:22:47.557Z,99.90
2019-06-01T23:25:18.646Z,99.90
2019-06-01T23:27:47.980Z,99.90
2019-06-01T23:30:21.989Z,99.90
2019-06-01T23:32:51.468Z,99.90
2019-06-01T23:35:22.330Z,99.90
2019-06-01T23:37:52.968Z,99.90
2019-06-01T23:40:22.894Z,99.90
2019-06-01T23:42:52.253Z,99.90
2019-06-01T23:45:22.581Z,99.90
2019-06-01T23:47:51.974Z,99.90
2019-06-01T23:50:21.625Z,99.90
2019-06-01T23:52:51.386Z,99.90
2019-06-01T23:55:20.813Z,99.90
2019-06-01T23:57:50.194Z,99.90
